Time;durP1;ratioP1;P1;durP2;ratioP2;P2;SDS_P1;SDS_P2;PMS_P1;PMS_P2;Temp;Humidity;BMP_temperature;BMP_pressure;BME280_temperature;BME280_humidity;BME280_pressure;Samples;Min_cycle;Max_cycle;Signal;HPM_P1;HPM_P2
2022/01/15 00:01:00;;;;;;;1.35;1.25;;;3.60;99.90;;;;;;5031522;28;20222;-77
2022/01/15 00:03:27;;;;;;;0.40;0.40;;;3.60;99.90;;;;;;5031414;28;20191;-76
2022/01/15 00:05:55;;;;;;;0.55;0.55;;;3.50;99.90;;;;;;5031903;28;20206;-78
2022/01/15 00:08:23;;;;;;;0.40;0.30;;;3.50;99.90;;;;;;5031598;28;20243;-77
2022/01/15 00:10:50;;;;;;;0.40;0.40;;;3.50;99.90;;;;;;5031362;28;20206;-76
2022/01/15 00:13:25;;;;;;;0.40;0.35;;;3.50;99.90;;;;;;5032039;28;20290;-77
2022/01/15 00:16:02;;;;;;;1.00;0.73;;;3.50;99.90;;;;;;5031555;28;20184;-77
2022/01/15 00:18:41;;;;;;;0.40;0.30;;;3.60;99.90;;;;;;5033274;28;20215;-78
2022/01/15 00:21:09;;;;;;;0.40;0.40;;;3.60;99.90;;;;;;5035260;28;20195;-78
2022/01/15 00:23:36;;;;;;;0.40;0.40;;;3.60;99.90;;;;;;5035357;28;20209;-77
2022/01/15 00:26:03;;;;;;;0.40;0.30;;;3.60;99.90;;;;;;5035207;28;20688;-77
2022/01/15 00:28:30;;;;;;;0.40;0.40;;;3.60;99.90;;;;;;5034720;28;20226;-77
2022/01/15 00:30:56;;;;;;;0.40;0.30;;;3.60;99.90;;;;;;5034819;28;20215;-77
2022/01/15 00:33:24;;;;;;;0.40;0.40;;;3.60;99.90;;;;;;5035256;28;20215;-75
2022/01/15 00:35:50;;;;;;;0.40;0.30;;;3.60;99.90;;;;;;5035324;28;20199;-77
2022/01/15 00:38:19;;;;;;;0.40;0.40;;;3.60;99.90;;;;;;5035027;28;20207;-77
2022/01/15 00:40:45;;;;;;;0.40;0.40;;;3.60;99.90;;;;;;5034040;28;20222;-78
2022/01/15 00:43:12;;;;;;;0.40;0.30;;;3.60;99.90;;;;;;5035154;28;20195;-78
2022/01/15 00:45:39;;;;;;;0.40;0.40;;;3.60;99.90;;;;;;5035170;28;20199;-78
2022/01/15 00:48:06;;;;;;;0.40;0.40;;;3.70;99.90;;;;;;5034860;28;20222;-77
2022/01/15 00:50:33;;;;;;;0.40;0.40;;;3.70;99.90;;;;;;5034297;28;20215;-77
2022/01/15 00:53:00;;;;;;;0.40;0.40;;;3.70;99.90;;;;;;5034672;28;20203;-77
2022/01/15 00:55:28;;;;;;;0.40;0.40;;;3.80;99.90;;;;;;5034267;28;20195;-77
2022/01/15 00:57:55;;;;;;;0.40;0.40;;;3.80;99.90;;;;;;5034723;28;20192;-77
2022/01/15 01:00:24;;;;;;;0.40;0.40;;;3.70;99.90;;;;;;5034623;28;20219;-77
2022/01/15 01:02:50;;;;;;;0.40;0.38;;;3.70;99.90;;;;;;5035075;28;20203;-78
2022/01/15 01:05:20;;;;;;;0.40;0.40;;;3.80;99.90;;;;;;5034679;28;20199;-77
2022/01/15 01:07:46;;;;;;;0.40;0.40;;;3.80;99.90;;;;;;5034515;28;20704;-77
2022/01/15 01:10:34;;;;;;;0.40;0.40;;;3.80;99.90;;;;;;5033967;28;20231;-77
2022/01/15 01:13:16;;;;;;;0.40;0.40;;;3.80;99.90;;;;;;5034306;28;20564;-78
2022/01/15 01:21:42;;;;;;;0.50;0.50;;;3.80;99.90;;;;;;5034387;28;20310;-77
2022/01/15 01:24:05;;;;;;;0.40;0.40;;;3.80;99.90;;;;;;5034054;28;20199;-78
2022/01/15 01:26:40;;;;;;;0.40;0.40;;;3.70;99.90;;;;;;5034495;28;20201;-77
2022/01/15 01:29:17;;;;;;;0.40;0.40;;;3.80;99.90;;;;;;5033135;28;20481;-77
2022/01/15 01:31:56;;;;;;;0.40;0.40;;;3.80;99.90;;;;;;5034422;28;20179;-76
2022/01/15 01:34:25;;;;;;;0.40;0.40;;;3.80;99.90;;;;;;5033877;28;20203;-74
2022/01/15 01:36:59;;;;;;;0.40;0.40;;;3.80;99.90;;;;;;5034199;28;20859;-77
2022/01/15 01:39:36;;;;;;;0.40;0.40;;;3.80;99.90;;;;;;5033507;28;20210;-77
2022/01/15 01:42:10;;;;;;;0.40;0.40;;;3.90;99.90;;;;;;5033568;28;20191;-77
2022/01/15 01:44:41;;;;;;;0.40;0.40;;;3.80;99.90;;;;;;5034181;28;20183;-77
2022/01/15 01:47:19;;;;;;;0.40;0.40;;;3.80;99.90;;;;;;5033845;28;20201;-77
2022/01/15 01:49:45;;;;;;;0.40;0.40;;;3.80;99.90;;;;;;5033371;28;20210;-78
2022/01/15 01:52:12;;;;;;;28.92;20.15;;;3.90;99.90;;;;;;5033733;28;20575;-77
2022/01/15 01:54:39;;;;;;;0.75;0.75;;;3.90;99.90;;;;;;5033060;28;20704;-77
2022/01/15 01:57:06;;;;;;;0.40;0.40;;;3.80;99.90;;;;;;5033942;28;20203;-78
2022/01/15 01:59:33;;;;;;;0.40;0.40;;;3.90;99.90;;;;;;5032734;28;20212;-77
2022/01/15 02:02:01;;;;;;;0.40;0.40;;;3.80;99.90;;;;;;5033207;28;20191;-79
2022/01/15 02:04:27;;;;;;;0.77;0.77;;;3.80;99.90;;;;;;5033487;28;20199;-78
2022/01/15 02:06:54;;;;;;;0.40;0.40;;;3.70;99.90;;;;;;5034926;28;20707;-78
2022/01/15 02:09:23;;;;;;;0.40;0.40;;;3.70;99.90;;;;;;5034982;28;20223;-77
2022/01/15 02:11:50;;;;;;;0.52;0.52;;;3.70;99.90;;;;;;5035762;28;20556;-78
2022/01/15 02:14:25;;;;;;;0.40;0.35;;;3.70;99.90;;;;;;5035060;28;20191;-78
2022/01/15 02:16:52;;;;;;;0.40;0.30;;;3.70;99.90;;;;;;5036207;28;20190;-77
2022/01/15 02:19:20;;;;;;;0.40;0.40;;;3.70;99.90;;;;;;5035743;28;20219;-77
2022/01/15 02:24:32;;;;;;;0.40;0.40;;;3.70;99.90;;;;;;5033388;28;20197;-78
2022/01/15 02:26:59;;;;;;;0.40;0.30;;;3.70;99.90;;;;;;5033703;28;20569;-77
2022/01/15 02:29:26;;;;;;;0.40;0.40;;;3.70;99.90;;;;;;5032662;28;20215;-77
2022/01/15 02:31:54;;;;;;;0.40;0.40;;;3.70;99.90;;;;;;5033512;28;20206;-77
2022/01/15 02:34:20;;;;;;;0.40;0.40;;;3.70;99.90;;;;;;5032493;28;20199;-78
2022/01/15 02:36:48;;;;;;;0.40;0.40;;;3.70;99.90;;;;;;5032996;28;20206;-77
2022/01/15 02:39:15;;;;;;;0.40;0.40;;;3.70;99.90;;;;;;5032407;28;20215;-76
2022/01/15 02:41:42;;;;;;;0.40;0.40;;;3.70;99.90;;;;;;5033082;28;20202;-78
2022/01/15 02:44:15;;;;;;;0.40;0.32;;;3.80;99.90;;;;;;5032486;28;20210;-77
2022/01/15 02:49:26;;;;;;;0.40;0.30;;;3.90;99.90;;;;;;5032285;28;20755;-78
2022/01/15 02:51:54;;;;;;;0.40;0.40;;;3.90;99.90;;;;;;5032545;28;20202;-78
2022/01/15 02:54:21;;;;;;;0.40;0.40;;;3.90;99.90;;;;;;5032306;28;20199;-78
2022/01/15 02:56:48;;;;;;;0.40;0.40;;;3.90;99.90;;;;;;5032524;28;20274;-77
2022/01/15 02:59:21;;;;;;;1.95;1.85;;;3.90;99.90;;;;;;5032733;28;20631;-78
2022/01/15 03:01:49;;;;;;;0.40;0.40;;;3.90;99.90;;;;;;5033001;28;20196;-78
2022/01/15 03:04:16;;;;;;;0.40;0.40;;;3.80;99.90;;;;;;5032661;28;20206;-77
2022/01/15 03:06:42;;;;;;;0.40;0.40;;;3.80;99.90;;;;;;5032875;28;20229;-77
2022/01/15 03:09:10;;;;;;;0.40;0.40;;;3.90;99.90;;;;;;5032581;28;20222;-77
2022/01/15 03:11:40;;;;;;;0.40;0.32;;;3.90;99.90;;;;;;5032733;28;20195;-78
2022/01/15 03:14:07;;;;;;;0.40;0.40;;;3.90;99.90;;;;;;5032755;28;20234;-78
2022/01/15 03:16:34;;;;;;;0.40;0.40;;;3.90;99.90;;;;;;5033807;28;20199;-78
2022/01/15 03:19:00;;;;;;;0.40;0.40;;;4.00;99.90;;;;;;5032481;28;20381;-78
2022/01/15 03:21:27;;;;;;;1.13;1.02;;;4.00;99.90;;;;;;5032062;28;20201;-79
2022/01/15 03:23:54;;;;;;;0.47;0.40;;;3.90;99.90;;;;;;5031832;28;20200;-78
2022/01/15 03:26:22;;;;;;;0.40;0.40;;;4.00;99.90;;;;;;5032452;28;20203;-77
2022/01/15 03:28:48;;;;;;;0.40;0.40;;;4.00;99.90;;;;;;5032139;28;20230;-77
2022/01/15 03:31:15;;;;;;;0.40;0.40;;;4.00;99.90;;;;;;5031945;28;20206;-78
2022/01/15 03:33:42;;;;;;;0.40;0.40;;;4.00;99.90;;;;;;5032201;28;20199;-77
2022/01/15 03:36:09;;;;;;;0.40;0.40;;;4.00;99.90;;;;;;5031123;28;20199;-78
2022/01/15 03:38:36;;;;;;;3.42;2.47;;;4.00;99.90;;;;;;5032054;28;20211;-78
2022/01/15 03:41:03;;;;;;;0.40;0.40;;;4.00;99.90;;;;;;5031853;28;20573;-78
2022/01/15 03:43:32;;;;;;;2.45;0.60;;;4.00;99.90;;;;;;5031766;28;20198;-77
2022/01/15 03:45:58;;;;;;;1.40;1.30;;;3.90;99.90;;;;;;5031540;28;20195;-77
2022/01/15 03:48:25;;;;;;;0.40;0.40;;;4.00;99.90;;;;;;5031749;28;20218;-77
2022/01/15 03:50:52;;;;;;;0.68;0.68;;;4.00;99.90;;;;;;5031051;28;20200;-77
2022/01/15 03:53:20;;;;;;;0.80;0.57;;;4.00;99.90;;;;;;5033550;28;20201;-77
2022/01/15 03:55:47;;;;;;;2.60;1.95;;;3.90;99.90;;;;;;5035789;28;20604;-77
2022/01/15 03:58:13;;;;;;;0.40;0.40;;;3.90;99.90;;;;;;5035551;28;20191;-77
2022/01/15 04:00:42;;;;;;;0.40;0.40;;;3.90;99.90;;;;;;5035509;28;20190;-78
2022/01/15 04:03:08;;;;;;;1.60;0.60;;;3.90;99.90;;;;;;5035581;28;20206;-77
2022/01/15 04:05:35;;;;;;;0.40;0.40;;;3.90;99.90;;;;;;5035528;28;20195;-77
2022/01/15 04:08:02;;;;;;;0.40;0.40;;;3.90;99.90;;;;;;5035531;28;20195;-77
2022/01/15 04:10:29;;;;;;;0.40;0.30;;;3.80;99.90;;;;;;5099649;22;20230;-79
2022/01/15 04:12:56;;;;;;;2.70;2.60;;;3.80;99.90;;;;;;5077165;28;20190;-78
2022/01/15 04:15:22;;;;;;;1.52;1.42;;;3.80;99.90;;;;;;5089357;28;20198;-78
2022/01/15 04:17:51;;;;;;;0.40;0.40;;;3.80;99.90;;;;;;5092865;28;20185;-78
2022/01/15 04:20:21;;;;;;;0.50;0.50;;;3.70;99.90;;;;;;5091719;28;20281;-79
2022/01/15 04:22:49;;;;;;;0.40;0.30;;;3.70;99.90;;;;;;5094204;28;20182;-78
2022/01/15 04:25:16;;;;;;;0.40;0.30;;;3.70;99.90;;;;;;5093275;28;20205;-77
2022/01/15 04:27:44;;;;;;;0.40;0.40;;;3.70;99.90;;;;;;5092030;28;20317;-79
2022/01/15 04:30:13;;;;;;;0.40;0.30;;;3.60;99.90;;;;;;5080459;28;20218;-81
2022/01/15 04:32:40;;;;;;;0.77;0.60;;;3.60;99.90;;;;;;5079059;28;20204;-81
2022/01/15 04:35:09;;;;;;;0.50;0.50;;;3.60;99.90;;;;;;5078712;28;20190;-79
2022/01/15 04:37:39;;;;;;;1.65;0.50;;;3.50;99.90;;;;;;5078656;28;20205;-81
2022/01/15 04:40:08;;;;;;;2.28;1.33;;;3.50;99.90;;;;;;5078646;28;20269;-80
2022/01/15 04:42:35;;;;;;;0.40;0.40;;;3.40;99.90;;;;;;5078818;28;20202;-81
2022/01/15 04:45:03;;;;;;;1.95;1.13;;;3.40;99.90;;;;;;5079115;28;20201;-80
2022/01/15 04:47:30;;;;;;;0.50;0.40;;;3.30;99.90;;;;;;5078896;28;20198;-79
2022/01/15 04:49:57;;;;;;;12.10;3.15;;;3.30;99.90;;;;;;5077994;28;20230;-80
2022/01/15 04:52:25;;;;;;;0.40;0.40;;;3.30;99.90;;;;;;5077577;28;20683;-80
2022/01/15 04:54:52;;;;;;;0.40;0.30;;;3.30;99.90;;;;;;5079165;28;20201;-81
2022/01/15 04:57:19;;;;;;;0.40;0.30;;;3.30;99.90;;;;;;5078551;28;20194;-80
2022/01/15 04:59:45;;;;;;;0.40;0.30;;;3.30;99.90;;;;;;5078282;28;20186;-80
2022/01/15 05:02:12;;;;;;;0.40;0.40;;;3.30;99.90;;;;;;5078755;28;20204;-80
2022/01/15 05:04:39;;;;;;;0.40;0.40;;;3.40;99.90;;;;;;5077218;28;20201;-81
2022/01/15 05:07:06;;;;;;;0.40;0.40;;;3.40;99.90;;;;;;5078479;28;20204;-80
2022/01/15 05:09:34;;;;;;;0.40;0.40;;;3.40;99.90;;;;;;5077688;28;20213;-80
2022/01/15 05:12:04;;;;;;;1.60;1.08;;;3.40;99.90;;;;;;5077421;28;20230;-80
2022/01/15 05:14:31;;;;;;;0.40;0.40;;;3.40;99.90;;;;;;5078652;28;20201;-81
2022/01/15 05:16:58;;;;;;;0.40;0.40;;;3.40;99.90;;;;;;5077935;28;20197;-81
2022/01/15 05:19:24;;;;;;;0.40;0.40;;;3.30;99.90;;;;;;5078018;28;20193;-80
2022/01/15 05:21:54;;;;;;;0.40;0.40;;;3.30;99.90;;;;;;5078032;28;20221;-80
2022/01/15 05:24:21;;;;;;;0.40;0.35;;;3.30;99.90;;;;;;5086620;28;20209;-80
2022/01/15 05:26:49;;;;;;;0.40;0.40;;;3.30;99.90;;;;;;5084541;28;20198;-81
2022/01/15 05:29:16;;;;;;;0.40;0.40;;;3.20;99.90;;;;;;5078378;28;20210;-82
2022/01/15 05:31:42;;;;;;;0.40;0.40;;;3.20;99.90;;;;;;5077648;28;20213;-82
2022/01/15 05:34:10;;;;;;;0.40;0.40;;;3.20;99.90;;;;;;5077635;28;20200;-82
2022/01/15 05:36:39;;;;;;;0.40;0.40;;;3.20;99.90;;;;;;5077967;28;20259;-81
2022/01/15 05:39:06;;;;;;;0.40;0.38;;;3.30;99.90;;;;;;5077675;28;20186;-82
2022/01/15 05:41:32;;;;;;;0.40;0.40;;;3.40;99.90;;;;;;5077786;28;20227;-81
2022/01/15 05:44:02;;;;;;;0.40;0.30;;;3.40;99.90;;;;;;5077627;28;20201;-81
2022/01/15 05:46:29;;;;;;;0.40;0.40;;;3.40;99.90;;;;;;5077588;28;20667;-82
2022/01/15 05:48:56;;;;;;;0.40;0.38;;;3.40;99.90;;;;;;5077891;28;20206;-81
2022/01/15 05:51:24;;;;;;;0.40;0.40;;;3.40;99.90;;;;;;5077754;28;20214;-82
2022/01/15 05:53:50;;;;;;;0.50;0.50;;;3.40;99.90;;;;;;5077551;28;20201;-82
2022/01/15 05:56:17;;;;;;;0.40;0.40;;;3.40;99.90;;;;;;5084066;28;20216;-81
2022/01/15 05:58:44;;;;;;;0.75;0.75;;;3.40;99.90;;;;;;5091693;28;20196;-81
2022/01/15 06:01:12;;;;;;;0.40;0.35;;;3.30;99.90;;;;;;5091722;28;20224;-79
2022/01/15 06:03:38;;;;;;;0.40;0.30;;;3.30;99.90;;;;;;5088385;28;20198;-82
2022/01/15 06:06:05;;;;;;;0.40;0.40;;;3.20;99.90;;;;;;5078699;28;20205;-82
2022/01/15 06:08:32;;;;;;;0.40;0.40;;;3.20;99.90;;;;;;5079002;28;20288;-81
2022/01/15 06:10:59;;;;;;;0.40;0.30;;;3.20;99.90;;;;;;5077585;28;20226;-81
2022/01/15 06:13:25;;;;;;;0.40;0.40;;;3.20;99.90;;;;;;5077468;28;20197;-80
2022/01/15 06:15:52;;;;;;;0.70;0.70;;;3.20;99.90;;;;;;5077616;28;20198;-82
2022/01/15 06:18:20;;;;;;;3.67;3.40;;;3.10;99.90;;;;;;5078034;28;20291;-79
2022/01/15 06:20:47;;;;;;;0.40;0.40;;;3.10;99.90;;;;;;5084338;28;20214;-78
2022/01/15 06:23:13;;;;;;;0.40;0.40;;;3.00;99.90;;;;;;5087557;28;20205;-81
2022/01/15 06:25:40;;;;;;;0.40;0.40;;;3.00;99.90;;;;;;5090340;28;20194;-81
2022/01/15 06:28:07;;;;;;;0.40;0.40;;;2.90;99.90;;;;;;5088610;28;20194;-81
2022/01/15 06:30:34;;;;;;;0.40;0.40;;;2.90;99.90;;;;;;5080509;28;20218;-82
2022/01/15 06:33:00;;;;;;;1.45;1.35;;;2.90;99.90;;;;;;5079646;28;20598;-82
2022/01/15 06:35:29;;;;;;;2.88;2.05;;;2.80;99.90;;;;;;5079307;28;20201;-80
2022/01/15 06:37:55;;;;;;;2.67;1.27;;;2.70;99.90;;;;;;5084393;28;20201;-80
2022/01/15 06:40:22;;;;;;;0.40;0.40;;;2.70;99.90;;;;;;5083965;28;20210;-82
2022/01/15 06:42:49;;;;;;;2.65;1.75;;;2.60;99.90;;;;;;5081054;28;20202;-80
2022/01/15 06:45:15;;;;;;;0.40;0.40;;;2.60;99.90;;;;;;5081258;28;20190;-81
2022/01/15 06:47:42;;;;;;;0.40;0.40;;;2.50;99.90;;;;;;5079105;28;20205;-82
2022/01/15 06:50:10;;;;;;;2.88;1.50;;;2.40;99.90;;;;;;5075641;28;20638;-82
2022/01/15 06:52:39;;;;;;;0.40;0.40;;;2.30;99.90;;;;;;5077010;28;20567;-82
2022/01/15 06:55:07;;;;;;;0.40;0.40;;;2.30;99.90;;;;;;5075793;28;20198;-81
2022/01/15 06:57:34;;;;;;;0.40;0.40;;;2.30;99.90;;;;;;5076275;28;20219;-81
2022/01/15 07:00:02;;;;;;;0.40;0.40;;;2.20;99.90;;;;;;5075951;28;21856;-82
2022/01/15 07:02:30;;;;;;;1.38;1.27;;;2.30;99.90;;;;;;5076684;28;20201;-81
2022/01/15 07:04:56;;;;;;;0.40;0.40;;;2.20;99.90;;;;;;5078449;28;20227;-81
2022/01/15 07:07:23;;;;;;;0.40;0.40;;;2.30;99.90;;;;;;5079248;28;20208;-82
2022/01/15 07:09:51;;;;;;;0.40;0.40;;;2.30;99.90;;;;;;5078560;28;20218;-81
2022/01/15 07:12:18;;;;;;;0.40;0.40;;;2.30;99.90;;;;;;5079892;28;20200;-80
2022/01/15 07:14:45;;;;;;;0.40;0.40;;;2.30;99.90;;;;;;5078350;28;20194;-82
2022/01/15 07:17:12;;;;;;;0.40;0.40;;;2.40;99.90;;;;;;5078153;28;20205;-82
2022/01/15 07:19:38;;;;;;;0.40;0.30;;;2.40;99.90;;;;;;5077082;28;20201;-83
2022/01/15 07:22:06;;;;;;;0.40;0.40;;;2.50;99.90;;;;;;5078646;28;20711;-81
2022/01/15 07:24:33;;;;;;;0.40;0.40;;;2.50;99.90;;;;;;5081749;28;20197;-79
2022/01/15 07:27:01;;;;;;;0.40;0.40;;;2.50;99.90;;;;;;5083446;28;20567;-79
2022/01/15 07:29:30;;;;;;;0.40;0.40;;;2.50;99.90;;;;;;5083975;28;20618;-79
2022/01/15 07:31:58;;;;;;;0.40;0.40;;;2.40;99.90;;;;;;5084263;28;20611;-80
2022/01/15 07:34:24;;;;;;;0.40;0.38;;;2.30;99.90;;;;;;5082686;28;20203;-80
2022/01/15 07:36:54;;;;;;;0.40;0.30;;;2.30;99.90;;;;;;5080064;28;20201;-83
2022/01/15 07:39:21;;;;;;;0.40;0.40;;;2.30;99.90;;;;;;5074941;28;20194;-82
2022/01/15 07:41:48;;;;;;;0.40;0.40;;;2.30;99.90;;;;;;5075436;28;20214;-81
2022/01/15 07:44:16;;;;;;;1.02;1.02;;;2.30;99.90;;;;;;5075419;28;20544;-81
2022/01/15 07:46:43;;;;;;;0.93;0.93;;;2.20;99.90;;;;;;5075428;28;20204;-81
2022/01/15 07:49:10;;;;;;;0.40;0.40;;;2.20;99.90;;;;;;5074038;28;20204;-83
2022/01/15 07:51:37;;;;;;;0.40;0.40;;;2.20;99.90;;;;;;5074945;28;20228;-82
2022/01/15 07:54:04;;;;;;;2.55;2.35;;;2.20;99.90;;;;;;5075121;28;20194;-82
2022/01/15 07:56:31;;;;;;;0.50;0.50;;;2.20;99.90;;;;;;5075808;28;20209;-82
2022/01/15 07:58:57;;;;;;;0.50;0.50;;;2.20;99.90;;;;;;5073775;28;20201;-78
2022/01/15 08:01:25;;;;;;;0.93;0.93;;;2.20;99.90;;;;;;5074116;28;20218;-81
2022/01/15 08:03:52;;;;;;;0.40;0.40;;;2.10;99.90;;;;;;5073708;28;20204;-81
2022/01/15 08:06:19;;;;;;;0.40;0.30;;;2.20;99.90;;;;;;5073920;28;20194;-83
2022/01/15 08:08:45;;;;;;;4.30;1.40;;;2.20;99.90;;;;;;5073302;28;20198;-80
2022/01/15 08:11:12;;;;;;;6.38;1.40;;;2.10;99.90;;;;;;5072710;28;20231;-82
2022/01/15 08:13:39;;;;;;;0.40;0.40;;;2.10;99.90;;;;;;5072959;28;20190;-82
2022/01/15 08:16:07;;;;;;;0.40;0.40;;;2.10;99.90;;;;;;5073923;28;20197;-82
2022/01/15 08:18:35;;;;;;;0.40;0.40;;;2.20;99.90;;;;;;5073986;28;20219;-79
2022/01/15 08:21:03;;;;;;;0.50;0.40;;;2.20;99.90;;;;;;5073033;28;20549;-81
2022/01/15 08:23:30;;;;;;;0.40;0.40;;;2.20;99.90;;;;;;5073554;28;20198;-81
2022/01/15 08:25:58;;;;;;;21.77;2.88;;;2.20;99.90;;;;;;5072896;28;20670;-81
2022/01/15 08:28:25;;;;;;;1.45;1.35;;;2.30;99.90;;;;;;5074216;28;20558;-82
2022/01/15 08:30:52;;;;;;;0.93;0.93;;;2.20;99.90;;;;;;5072958;28;20224;-81
2022/01/15 08:33:18;;;;;;;0.40;0.30;;;2.20;99.90;;;;;;5074285;28;20571;-81
2022/01/15 08:35:46;;;;;;;0.73;0.73;;;2.20;99.90;;;;;;5073953;28;20659;-82
2022/01/15 08:38:13;;;;;;;0.40;0.40;;;2.20;99.90;;;;;;5074527;28;20205;-82
2022/01/15 08:40:40;;;;;;;0.70;0.70;;;2.30;99.90;;;;;;5078061;28;20241;-82
2022/01/15 08:43:09;;;;;;;0.40;0.40;;;2.30;99.90;;;;;;5077552;28;20197;-82
2022/01/15 08:45:38;;;;;;;0.40;0.40;;;2.30;99.90;;;;;;5077460;28;20202;-81
2022/01/15 08:48:07;;;;;;;0.40;0.40;;;2.30;99.90;;;;;;5077304;28;20193;-82
2022/01/15 08:50:34;;;;;;;0.40;0.38;;;2.30;99.90;;;;;;5076947;28;20317;-80
2022/01/15 08:53:04;;;;;;;0.63;0.63;;;2.30;99.90;;;;;;5077300;28;20667;-82
2022/01/15 08:55:31;;;;;;;1.95;1.85;;;2.40;99.90;;;;;;5076610;28;20194;-82
2022/01/15 08:57:59;;;;;;;0.60;0.60;;;2.40;99.90;;;;;;5077547;28;20198;-82
2022/01/15 09:00:27;;;;;;;0.40;0.40;;;2.50;99.90;;;;;;5077170;28;20213;-82
2022/01/15 09:02:55;;;;;;;0.40;0.40;;;2.50;99.90;;;;;;5077227;28;20225;-79
2022/01/15 09:05:23;;;;;;;0.63;0.63;;;2.50;99.90;;;;;;5077828;28;20208;-81
2022/01/15 09:07:54;;;;;;;0.40;0.40;;;2.60;99.90;;;;;;5077993;28;20208;-82
2022/01/15 09:10:22;;;;;;;0.40;0.40;;;2.50;99.90;;;;;;5077223;28;20222;-83
2022/01/15 09:12:49;;;;;;;0.80;0.70;;;2.50;99.90;;;;;;5078074;28;20174;-82
2022/01/15 09:15:16;;;;;;;0.40;0.30;;;2.60;99.90;;;;;;5077261;28;20190;-82
2022/01/15 09:17:43;;;;;;;0.40;0.40;;;2.70;99.90;;;;;;5077824;28;20222;-82
2022/01/15 09:20:11;;;;;;;0.40;0.40;;;2.70;99.90;;;;;;5077405;28;20206;-82
2022/01/15 09:22:38;;;;;;;0.50;0.50;;;2.70;99.90;;;;;;5077547;28;20201;-83
2022/01/15 09:25:06;;;;;;;0.40;0.40;;;2.80;99.90;;;;;;5076919;28;20198;-81
2022/01/15 09:30:19;;;;;;;0.80;0.50;;;2.90;99.90;;;;;;5076496;28;20233;-82
2022/01/15 09:32:49;;;;;;;3.25;3.03;;;2.90;99.90;;;;;;5077213;28;20198;-81
2022/01/15 09:35:19;;;;;;;0.50;0.50;;;2.90;99.90;;;;;;5077061;28;20198;-81
2022/01/15 09:37:47;;;;;;;0.40;0.40;;;2.90;99.90;;;;;;5076649;28;20205;-82
2022/01/15 09:40:14;;;;;;;2.80;2.67;;;2.80;99.90;;;;;;5076711;28;20210;-81
2022/01/15 09:42:44;;;;;;;0.40;0.40;;;2.70;99.90;;;;;;5077032;28;20678;-80
2022/01/15 09:45:12;;;;;;;0.57;0.57;;;2.70;99.90;;;;;;5077215;28;20197;-81
2022/01/15 09:47:41;;;;;;;0.40;0.40;;;2.70;99.90;;;;;;5077831;28;20198;-80
2022/01/15 09:50:11;;;;;;;0.40;0.40;;;2.70;99.90;;;;;;5076691;28;20213;-81
2022/01/15 09:52:38;;;;;;;0.40;0.40;;;2.80;99.90;;;;;;5076850;28;20194;-79
2022/01/15 09:55:09;;;;;;;0.40;0.40;;;2.90;99.90;;;;;;5077132;28;20598;-80
2022/01/15 09:57:36;;;;;;;1.92;1.80;;;2.90;99.90;;;;;;5077401;28;20175;-80
2022/01/15 10:00:08;;;;;;;0.50;0.50;;;3.00;99.90;;;;;;5076722;28;20224;-81
2022/01/15 10:02:36;;;;;;;0.50;0.40;;;3.00;99.90;;;;;;5077202;28;20206;-81
2022/01/15 10:05:02;;;;;;;0.75;0.75;;;2.90;99.90;;;;;;5076706;28;20221;-80
2022/01/15 10:07:29;;;;;;;0.40;0.40;;;2.90;99.90;;;;;;5077482;28;20209;-80
2022/01/15 10:09:56;;;;;;;0.40;0.30;;;2.90;99.90;;;;;;5076344;28;20639;-81
2022/01/15 10:12:29;;;;;;;0.40;0.40;;;2.90;99.90;;;;;;5076828;28;20187;-83
2022/01/15 10:15:00;;;;;;;0.50;0.50;;;3.00;99.90;;;;;;5127254;22;20218;-77
2022/01/15 10:17:30;;;;;;;0.40;0.40;;;3.00;99.90;;;;;;5053020;28;20190;-76
2022/01/15 10:19:59;;;;;;;0.40;0.40;;;3.00;99.90;;;;;;5064559;28;20193;-77
2022/01/15 10:22:27;;;;;;;3.88;1.58;;;3.10;99.90;;;;;;5073402;28;20198;-76
2022/01/15 10:24:56;;;;;;;0.40;0.40;;;3.10;99.90;;;;;;5072967;28;20213;-77
2022/01/15 10:27:26;;;;;;;0.50;0.40;;;3.20;99.90;;;;;;5073112;28;20198;-77
2022/01/15 10:29:57;;;;;;;0.40;0.40;;;3.20;99.90;;;;;;5072853;28;20278;-75
2022/01/15 10:32:24;;;;;;;0.40;0.40;;;3.30;99.90;;;;;;5072568;28;20198;-76
2022/01/15 10:34:52;;;;;;;0.50;0.50;;;3.30;99.90;;;;;;5072014;28;20218;-76
2022/01/15 10:37:22;;;;;;;0.40;0.30;;;3.40;99.90;;;;;;5072397;28;20209;-76
2022/01/15 10:39:58;;;;;;;0.50;0.40;;;3.40;99.90;;;;;;5072076;28;20688;-76
2022/01/15 10:42:26;;;;;;;0.40;0.40;;;3.50;99.90;;;;;;5073097;28;20360;-77
2022/01/15 10:44:53;;;;;;;0.50;0.40;;;3.50;99.90;;;;;;5072315;28;20222;-77
2022/01/15 10:47:22;;;;;;;0.40;0.40;;;3.60;99.90;;;;;;5072994;28;20194;-76
2022/01/15 10:49:49;;;;;;;0.40;0.40;;;3.50;99.90;;;;;;5072619;28;20198;-76
2022/01/15 10:52:19;;;;;;;0.50;0.50;;;3.60;99.90;;;;;;5072062;28;20225;-77
2022/01/15 10:55:01;;;;;;;2.30;2.20;;;3.50;99.90;;;;;;5072203;28;20599;-76
2022/01/15 10:57:31;;;;;;;0.40;0.40;;;3.60;99.90;;;;;;5072716;28;20265;-77
2022/01/15 11:00:06;;;;;;;0.40;0.40;;;3.50;99.90;;;;;;5072305;28;20205;-77
2022/01/15 11:02:33;;;;;;;0.50;0.50;;;3.50;99.90;;;;;;5071485;28;20244;-77
2022/01/15 11:05:02;;;;;;;0.40;0.40;;;3.60;99.90;;;;;;5075488;28;20218;-76
2022/01/15 11:07:37;;;;;;;0.40;0.40;;;3.60;99.90;;;;;;5071611;28;20221;-76
2022/01/15 11:10:07;;;;;;;0.40;0.40;;;3.70;99.90;;;;;;5072219;28;20225;-76
2022/01/15 11:12:34;;;;;;;0.45;0.40;;;3.70;99.90;;;;;;5074528;28;20190;-77
2022/01/15 11:15:01;;;;;;;0.43;0.43;;;3.70;99.90;;;;;;5073269;28;20225;-78
2022/01/15 11:17:28;;;;;;;0.40;0.40;;;3.70;99.90;;;;;;5072971;28;20285;-78
2022/01/15 11:19:55;;;;;;;1.38;0.90;;;3.60;99.90;;;;;;5072424;28;20193;-76
2022/01/15 11:22:23;;;;;;;0.40;0.38;;;3.60;99.90;;;;;;5071582;28;20186;-76
2022/01/15 11:24:52;;;;;;;0.40;0.40;;;3.70;99.90;;;;;;5072103;28;20204;-77
2022/01/15 11:27:19;;;;;;;4.00;0.82;;;3.70;99.90;;;;;;5072458;28;20208;-76
2022/01/15 11:29:48;;;;;;;0.40;0.40;;;3.80;99.90;;;;;;5072150;28;20228;-76
2022/01/15 11:32:17;;;;;;;2.72;0.93;;;3.80;99.90;;;;;;5071505;28;20316;-76
2022/01/15 11:35:00;;;;;;;0.40;0.40;;;3.80;99.90;;;;;;5073279;28;20202;-76
2022/01/15 11:37:27;;;;;;;0.40;0.40;;;3.80;99.90;;;;;;5072128;28;20178;-76
2022/01/15 11:39:56;;;;;;;4.72;3.33;;;3.80;99.90;;;;;;5072584;28;20194;-75
2022/01/15 11:42:27;;;;;;;0.40;0.30;;;3.70;99.90;;;;;;5071751;28;20293;-76
2022/01/15 11:44:54;;;;;;;0.43;0.43;;;3.70;99.90;;;;;;5071759;28;20753;-76
2022/01/15 11:47:25;;;;;;;0.40;0.40;;;3.70;99.90;;;;;;5071426;28;20658;-76
2022/01/15 11:49:53;;;;;;;0.40;0.40;;;3.90;99.90;;;;;;5073099;28;20261;-76
2022/01/15 11:52:33;;;;;;;0.40;0.40;;;4.00;99.90;;;;;;5071785;28;20222;-76
2022/01/15 11:55:24;;;;;;;0.40;0.40;;;4.00;99.90;;;;;;5071616;28;20220;-76
2022/01/15 11:57:54;;;;;;;0.45;0.45;;;4.10;99.90;;;;;;5071882;28;20673;-75
2022/01/15 12:00:27;;;;;;;0.40;0.40;;;4.10;99.90;;;;;;5070818;28;20697;-76
2022/01/15 12:03:13;;;;;;;0.85;0.85;;;4.10;99.90;;;;;;5071563;28;20194;-76
2022/01/15 12:05:45;;;;;;;0.40;0.40;;;4.20;99.90;;;;;;5071487;28;20556;-75
2022/01/15 12:08:36;;;;;;;2.15;0.60;;;4.20;99.90;;;;;;5071751;28;20194;-76
2022/01/15 12:11:06;;;;;;;0.77;0.75;;;4.20;99.90;;;;;;5070910;28;20213;-76
2022/01/15 12:13:45;;;;;;;0.40;0.40;;;4.20;99.90;;;;;;5071919;28;20560;-77
2022/01/15 12:16:28;;;;;;;0.50;0.40;;;4.20;99.90;;;;;;5075176;28;20240;-77
2022/01/15 12:18:58;;;;;;;0.50;0.50;;;4.10;99.90;;;;;;5075756;28;20197;-77
2022/01/15 12:21:48;;;;;;;0.40;0.40;;;4.10;99.90;;;;;;5074446;28;20617;-77
2022/01/15 12:24:38;;;;;;;0.40;0.40;;;4.20;99.90;;;;;;5075291;28;20224;-76
2022/01/15 12:27:10;;;;;;;0.40;0.40;;;4.30;99.90;;;;;;5075253;28;20236;-77
2022/01/15 12:29:38;;;;;;;0.50;0.40;;;4.40;99.90;;;;;;5075676;28;20233;-76
2022/01/15 12:32:05;;;;;;;0.40;0.40;;;4.30;99.90;;;;;;5074836;28;20579;-77
2022/01/15 12:34:32;;;;;;;0.45;0.40;;;4.40;99.90;;;;;;5074545;28;20567;-76
2022/01/15 12:36:59;;;;;;;0.40;0.40;;;4.40;99.90;;;;;;5074748;28;20205;-76
2022/01/15 12:39:37;;;;;;;0.40;0.40;;;4.40;99.90;;;;;;5074773;28;20198;-76
2022/01/15 12:42:08;;;;;;;0.40;0.40;;;4.40;99.90;;;;;;5074511;28;20669;-77
2022/01/15 12:44:42;;;;;;;0.47;0.40;;;4.40;99.90;;;;;;5074643;28;20280;-76
2022/01/15 12:47:09;;;;;;;0.50;0.50;;;4.50;99.90;;;;;;5074158;28;20666;-76
2022/01/15 12:49:38;;;;;;;0.40;0.40;;;4.50;99.90;;;;;;5074339;28;20213;-76
2022/01/15 12:52:16;;;;;;;0.50;0.40;;;4.40;99.90;;;;;;5074574;28;20218;-76
2022/01/15 12:54:46;;;;;;;0.40;0.40;;;4.40;99.90;;;;;;5074587;28;20182;-76
2022/01/15 12:57:15;;;;;;;0.40;0.40;;;4.50;99.90;;;;;;5075110;28;20178;-76
2022/01/15 12:59:42;;;;;;;1.90;0.90;;;4.40;99.90;;;;;;5074646;28;20194;-75
2022/01/15 13:02:09;;;;;;;0.50;0.40;;;4.40;99.90;;;;;;5074778;28;20193;-76
2022/01/15 13:04:36;;;;;;;0.40;0.40;;;4.40;99.90;;;;;;5074752;28;20202;-75
2022/01/15 13:07:04;;;;;;;0.43;0.40;;;4.40;99.90;;;;;;5074557;28;20205;-76
2022/01/15 13:09:40;;;;;;;0.50;0.50;;;4.40;99.90;;;;;;5073744;28;20668;-75
2022/01/15 13:12:11;;;;;;;2.25;1.42;;;4.40;99.90;;;;;;5074114;28;20210;-76
2022/01/15 13:14:40;;;;;;;0.40;0.40;;;4.50;99.90;;;;;;5074655;28;20190;-75
2022/01/15 13:17:23;;;;;;;0.50;0.40;;;4.50;99.90;;;;;;5074391;28;20201;-76
2022/01/15 13:19:50;;;;;;;0.40;0.40;;;4.40;99.90;;;;;;5074727;28;20331;-75